sensor_id;sensor_type;location;lat;lon;timestamp;temperature;humidity
12309;DHT22;6217;48.150;17.142;2023-02-28T00:03:58;3.30;55.10
12309;DHT22;6217;48.150;17.142;2023-02-28T00:08:04;3.30;55.10
12309;DHT22;6217;48.150;17.142;2023-02-28T00:12:10;3.40;55.20
12309;DHT22;6217;48.150;17.142;2023-02-28T00:16:19;3.40;55.20
12309;DHT22;6217;48.150;17.142;2023-02-28T00:20:26;3.30;55.30
12309;DHT22;6217;48.150;17.142;2023-02-28T00:24:32;3.30;55.40
12309;DHT22;6217;48.150;17.142;2023-02-28T00:28:38;3.30;55.60
12309;DHT22;6217;48.150;17.142;2023-02-28T00:32:44;3.30;55.60
12309;DHT22;6217;48.150;17.142;2023-02-28T00:36:50;3.30;55.70
12309;DHT22;6217;48.150;17.142;2023-02-28T00:40:55;3.30;55.80
12309;DHT22;6217;48.150;17.142;2023-02-28T00:45:03;3.20;55.90
12309;DHT22;6217;48.150;17.142;2023-02-28T00:49:10;3.20;56.10
12309;DHT22;6217;48.150;17.142;2023-02-28T00:53:16;3.20;56.30
12309;DHT22;6217;48.150;17.142;2023-02-28T00:57:22;3.20;56.30
12309;DHT22;6217;48.150;17.142;2023-02-28T01:01:28;3.20;56.30
12309;DHT22;6217;48.150;17.142;2023-02-28T01:05:34;3.30;56.40
12309;DHT22;6217;48.150;17.142;2023-02-28T01:09:40;3.20;56.50
12309;DHT22;6217;48.150;17.142;2023-02-28T01:13:47;3.20;56.70
12309;DHT22;6217;48.150;17.142;2023-02-28T01:17:53;3.10;56.80
12309;DHT22;6217;48.150;17.142;2023-02-28T01:22:03;3.10;57.00
12309;DHT22;6217;48.150;17.142;2023-02-28T01:26:13;3.00;57.20
12309;DHT22;6217;48.150;17.142;2023-02-28T01:30:20;3.10;57.30
12309;DHT22;6217;48.150;17.142;2023-02-28T01:34:26;3.00;57.40
12309;DHT22;6217;48.150;17.142;2023-02-28T01:38:33;2.90;57.70
12309;DHT22;6217;48.150;17.142;2023-02-28T01:42:39;3.00;57.80
12309;DHT22;6217;48.150;17.142;2023-02-28T01:46:45;2.90;58.10
12309;DHT22;6217;48.150;17.142;2023-02-28T01:50:51;2.80;58.40
12309;DHT22;6217;48.150;17.142;2023-02-28T01:54:59;2.80;58.40
12309;DHT22;6217;48.150;17.142;2023-02-28T01:59:06;2.80;58.20
12309;DHT22;6217;48.150;17.142;2023-02-28T02:03:15;2.80;58.30
12309;DHT22;6217;48.150;17.142;2023-02-28T02:07:25;2.80;58.50
12309;DHT22;6217;48.150;17.142;2023-02-28T02:11:32;2.80;59.20
12309;DHT22;6217;48.150;17.142;2023-02-28T02:16:13;2.80;58.70
12309;DHT22;6217;48.150;17.142;2023-02-28T02:20:32;2.80;58.80
12309;DHT22;6217;48.150;17.142;2023-02-28T02:38:31;2.50;59.80
12309;DHT22;6217;48.150;17.142;2023-02-28T02:43:03;2.50;59.90
12309;DHT22;6217;48.150;17.142;2023-02-28T02:47:17;2.40;60.00
12309;DHT22;6217;48.150;17.142;2023-02-28T02:51:24;2.40;60.00
12309;DHT22;6217;48.150;17.142;2023-02-28T02:55:34;2.30;60.10
12309;DHT22;6217;48.150;17.142;2023-02-28T02:59:44;2.20;60.30
12309;DHT22;6217;48.150;17.142;2023-02-28T03:03:50;2.10;60.50
12309;DHT22;6217;48.150;17.142;2023-02-28T03:07:57;2.10;60.90
12309;DHT22;6217;48.150;17.142;2023-02-28T03:12:08;2.00;61.10
12309;DHT22;6217;48.150;17.142;2023-02-28T03:21:28;2.00;61.70
12309;DHT22;6217;48.150;17.142;2023-02-28T03:30:35;1.90;62.20
12309;DHT22;6217;48.150;17.142;2023-02-28T03:39:30;2.00;62.60
12309;DHT22;6217;48.150;17.142;2023-02-28T03:43:44;1.90;62.80
12309;DHT22;6217;48.150;17.142;2023-02-28T03:48:12;1.90;63.10
12309;DHT22;6217;48.150;17.142;2023-02-28T03:52:23;1.90;63.20
12309;DHT22;6217;48.150;17.142;2023-02-28T03:56:43;1.90;63.30
12309;DHT22;6217;48.150;17.142;2023-02-28T04:00:59;1.80;63.50
12309;DHT22;6217;48.150;17.142;2023-02-28T04:05:13;1.80;63.60
12309;DHT22;6217;48.150;17.142;2023-02-28T04:09:19;1.80;63.60
12309;DHT22;6217;48.150;17.142;2023-02-28T04:13:25;1.80;63.60
12309;DHT22;6217;48.150;17.142;2023-02-28T04:17:31;1.70;63.70
12309;DHT22;6217;48.150;17.142;2023-02-28T04:21:39;1.70;64.20
12309;DHT22;6217;48.150;17.142;2023-02-28T04:25:47;1.60;64.30
12309;DHT22;6217;48.150;17.142;2023-02-28T04:29:53;1.50;64.40
12309;DHT22;6217;48.150;17.142;2023-02-28T04:34:00;1.50;64.50
12309;DHT22;6217;48.150;17.142;2023-02-28T04:38:06;1.40;64.70
12309;DHT22;6217;48.150;17.142;2023-02-28T04:42:12;1.40;64.80
12309;DHT22;6217;48.150;17.142;2023-02-28T04:46:21;1.40;65.10
12309;DHT22;6217;48.150;17.142;2023-02-28T04:50:28;1.30;65.40
12309;DHT22;6217;48.150;17.142;2023-02-28T04:54:34;1.30;65.40
12309;DHT22;6217;48.150;17.142;2023-02-28T04:58:40;1.30;65.40
12309;DHT22;6217;48.150;17.142;2023-02-28T05:02:46;1.30;65.40
12309;DHT22;6217;48.150;17.142;2023-02-28T05:06:52;1.30;65.40
12309;DHT22;6217;48.150;17.142;2023-02-28T05:10:58;1.30;65.30
12309;DHT22;6217;48.150;17.142;2023-02-28T05:15:06;1.30;65.20
12309;DHT22;6217;48.150;17.142;2023-02-28T05:19:13;1.30;65.20
12309;DHT22;6217;48.150;17.142;2023-02-28T05:23:20;1.40;65.10
12309;DHT22;6217;48.150;17.142;2023-02-28T05:27:27;1.40;65.10
12309;DHT22;6217;48.150;17.142;2023-02-28T05:31:33;1.50;65.00
12309;DHT22;6217;48.150;17.142;2023-02-28T05:35:40;1.50;64.80
12309;DHT22;6217;48.150;17.142;2023-02-28T05:39:48;1.60;64.90
12309;DHT22;6217;48.150;17.142;2023-02-28T05:43:53;1.70;64.80
12309;DHT22;6217;48.150;17.142;2023-02-28T05:47:59;1.70;64.70
12309;DHT22;6217;48.150;17.142;2023-02-28T05:52:05;1.80;64.70
12309;DHT22;6217;48.150;17.142;2023-02-28T05:56:11;1.90;64.70
12309;DHT22;6217;48.150;17.142;2023-02-28T06:00:18;2.00;64.40
12309;DHT22;6217;48.150;17.142;2023-02-28T06:04:24;2.10;64.40
12309;DHT22;6217;48.150;17.142;2023-02-28T06:08:30;2.10;64.20
12309;DHT22;6217;48.150;17.142;2023-02-28T06:12:36;2.20;64.20
12309;DHT22;6217;48.150;17.142;2023-02-28T06:16:43;2.30;64.10
12309;DHT22;6217;48.150;17.142;2023-02-28T06:20:55;2.30;64.20
12309;DHT22;6217;48.150;17.142;2023-02-28T06:25:01;2.40;64.00
12309;DHT22;6217;48.150;17.142;2023-02-28T06:29:08;2.50;63.70
12309;DHT22;6217;48.150;17.142;2023-02-28T06:33:14;2.60;63.70
12309;DHT22;6217;48.150;17.142;2023-02-28T06:37:20;2.80;63.20
12309;DHT22;6217;48.150;17.142;2023-02-28T06:41:26;2.80;62.90
12309;DHT22;6217;48.150;17.142;2023-02-28T06:45:32;2.90;62.60
12309;DHT22;6217;48.150;17.142;2023-02-28T06:49:39;2.90;62.50
12309;DHT22;6217;48.150;17.142;2023-02-28T06:53:45;3.00;62.40
12309;DHT22;6217;48.150;17.142;2023-02-28T06:57:52;3.00;62.30
12309;DHT22;6217;48.150;17.142;2023-02-28T07:01:58;4.30;63.00
12309;DHT22;6217;48.150;17.142;2023-02-28T07:06:05;8.80;55.30
12309;DHT22;6217;48.150;17.142;2023-02-28T07:10:11;11.00;49.10
12309;DHT22;6217;48.150;17.142;2023-02-28T07:14:18;12.90;45.20
12309;DHT22;6217;48.150;17.142;2023-02-28T07:18:24;12.10;44.20
12309;DHT22;6217;48.150;17.142;2023-02-28T07:22:30;11.00;45.90
12309;DHT22;6217;48.150;17.142;2023-02-28T07:26:36;13.70;45.90
12309;DHT22;6217;48.150;17.142;2023-02-28T07:30:42;14.40;41.20
12309;DHT22;6217;48.150;17.142;2023-02-28T07:34:48;11.60;41.00
12309;DHT22;6217;48.150;17.142;2023-02-28T07:38:54;8.70;46.70
12309;DHT22;6217;48.150;17.142;2023-02-28T07:43:01;8.60;49.70
12309;DHT22;6217;48.150;17.142;2023-02-28T07:47:08;11.70;47.10
12309;DHT22;6217;48.150;17.142;2023-02-28T07:51:14;14.00;41.70
12309;DHT22;6217;48.150;17.142;2023-02-28T07:55:20;14.50;38.70
12309;DHT22;6217;48.150;17.142;2023-02-28T07:59:26;13.30;41.80
12309;DHT22;6217;48.150;17.142;2023-02-28T08:03:33;12.40;40.90
12309;DHT22;6217;48.150;17.142;2023-02-28T08:07:39;9.90;45.80
12309;DHT22;6217;48.150;17.142;2023-02-28T08:11:45;11.20;46.70
12309;DHT22;6217;48.150;17.142;2023-02-28T08:15:50;10.20;44.70
12309;DHT22;6217;48.150;17.142;2023-02-28T08:19:56;9.20;48.30
12309;DHT22;6217;48.150;17.142;2023-02-28T08:24:02;11.00;45.60
12309;DHT22;6217;48.150;17.142;2023-02-28T08:28:08;10.30;45.50
12309;DHT22;6217;48.150;17.142;2023-02-28T08:32:14;9.30;46.90
12309;DHT22;6217;48.150;17.142;2023-02-28T08:36:21;8.30;49.20
12309;DHT22;6217;48.150;17.142;2023-02-28T08:40:27;7.70;50.40
12309;DHT22;6217;48.150;17.142;2023-02-28T08:44:33;7.30;51.70
12309;DHT22;6217;48.150;17.142;2023-02-28T08:48:40;7.10;52.40
12309;DHT22;6217;48.150;17.142;2023-02-28T08:52:46;7.30;53.10
12309;DHT22;6217;48.150;17.142;2023-02-28T08:56:52;7.50;53.00
12309;DHT22;6217;48.150;17.142;2023-02-28T09:00:58;7.70;53.00
12309;DHT22;6217;48.150;17.142;2023-02-28T09:05:04;8.20;52.70
12309;DHT22;6217;48.150;17.142;2023-02-28T09:09:10;8.50;51.90
12309;DHT22;6217;48.150;17.142;2023-02-28T09:13:17;8.50;51.30
12309;DHT22;6217;48.150;17.142;2023-02-28T09:17:24;8.50;51.30
12309;DHT22;6217;48.150;17.142;2023-02-28T09:21:30;8.60;51.70
12309;DHT22;6217;48.150;17.142;2023-02-28T09:25:36;9.00;51.60
12309;DHT22;6217;48.150;17.142;2023-02-28T09:29:42;9.30;51.30
12309;DHT22;6217;48.150;17.142;2023-02-28T09:33:49;9.30;51.20
12309;DHT22;6217;48.150;17.142;2023-02-28T09:37:56;9.00;51.10
12309;DHT22;6217;48.150;17.142;2023-02-28T09:42:04;8.90;51.60
12309;DHT22;6217;48.150;17.142;2023-02-28T09:46:40;8.90;51.90
12309;DHT22;6217;48.150;17.142;2023-02-28T09:51:04;9.00;51.70
12309;DHT22;6217;48.150;17.142;2023-02-28T10:04:56;8.70;51.50
12309;DHT22;6217;48.150;17.142;2023-02-28T10:09:13;8.40;51.60
12309;DHT22;6217;48.150;17.142;2023-02-28T10:17:43;8.30;52.50
12309;DHT22;6217;48.150;17.142;2023-02-28T10:22:11;8.60;51.90
12309;DHT22;6217;48.150;17.142;2023-02-28T10:26:19;8.30;51.80
12309;DHT22;6217;48.150;17.142;2023-02-28T10:30:25;8.30;52.10
12309;DHT22;6217;48.150;17.142;2023-02-28T10:34:31;8.30;51.80
12309;DHT22;6217;48.150;17.142;2023-02-28T10:38:39;8.00;51.80
12309;DHT22;6217;48.150;17.142;2023-02-28T10:43:02;7.80;52.20
12309;DHT22;6217;48.150;17.142;2023-02-28T10:47:19;7.70;52.10
12309;DHT22;6217;48.150;17.142;2023-02-28T10:51:26;7.50;52.00
12309;DHT22;6217;48.150;17.142;2023-02-28T10:55:40;7.50;52.30
12309;DHT22;6217;48.150;17.142;2023-02-28T10:59:51;7.30;52.20
12309;DHT22;6217;48.150;17.142;2023-02-28T11:03:58;7.20;52.50
12309;DHT22;6217;48.150;17.142;2023-02-28T11:08:14;7.00;52.70
12309;DHT22;6217;48.150;17.142;2023-02-28T11:12:38;7.10;52.70
12309;DHT22;6217;48.150;17.142;2023-02-28T11:16:47;7.10;52.60
12309;DHT22;6217;48.150;17.142;2023-02-28T11:20:56;7.10;52.80
12309;DHT22;6217;48.150;17.142;2023-02-28T11:25:09;7.10;52.70
12309;DHT22;6217;48.150;17.142;2023-02-28T11:29:30;7.10;52.80
12309;DHT22;6217;48.150;17.142;2023-02-28T11:33:49;7.00;53.00
12309;DHT22;6217;48.150;17.142;2023-02-28T11:37:57;7.10;53.20
12309;DHT22;6217;48.150;17.142;2023-02-28T11:42:23;7.10;53.10
12309;DHT22;6217;48.150;17.142;2023-02-28T11:51:23;7.10;53.00
12309;DHT22;6217;48.150;17.142;2023-02-28T11:55:42;6.90;53.00
12309;DHT22;6217;48.150;17.142;2023-02-28T12:13:55;6.90;53.10
12309;DHT22;6217;48.150;17.142;2023-02-28T12:27:46;7.30;53.40
12309;DHT22;6217;48.150;17.142;2023-02-28T12:32:06;7.20;52.90
12309;DHT22;6217;48.150;17.142;2023-02-28T12:36:20;7.30;52.90
12309;DHT22;6217;48.150;17.142;2023-02-28T12:40:47;7.40;52.70
12309;DHT22;6217;48.150;17.142;2023-02-28T12:45:02;7.30;52.80
12309;DHT22;6217;48.150;17.142;2023-02-28T12:49:19;7.30;52.90
12309;DHT22;6217;48.150;17.142;2023-02-28T12:58:08;7.10;52.30
12309;DHT22;6217;48.150;17.142;2023-02-28T13:07:29;7.20;52.70
12309;DHT22;6217;48.150;17.142;2023-02-28T13:11:43;7.30;52.40
12309;DHT22;6217;48.150;17.142;2023-02-28T13:16:05;7.30;52.00
12309;DHT22;6217;48.150;17.142;2023-02-28T13:20:19;7.10;52.00
12309;DHT22;6217;48.150;17.142;2023-02-28T13:33:30;7.20;51.70
12309;DHT22;6217;48.150;17.142;2023-02-28T13:37:43;7.20;51.60
12309;DHT22;6217;48.150;17.142;2023-02-28T13:41:50;7.30;51.70
12309;DHT22;6217;48.150;17.142;2023-02-28T13:46:10;7.40;51.50
12309;DHT22;6217;48.150;17.142;2023-02-28T13:59:58;7.10;51.20
12309;DHT22;6217;48.150;17.142;2023-02-28T14:09:00;7.50;51.30
12309;DHT22;6217;48.150;17.142;2023-02-28T14:13:45;7.40;50.90
12309;DHT22;6217;48.150;17.142;2023-02-28T14:17:54;7.50;50.90
12309;DHT22;6217;48.150;17.142;2023-02-28T14:22:54;7.40;50.70
12309;DHT22;6217;48.150;17.142;2023-02-28T14:40:29;7.30;50.90
12309;DHT22;6217;48.150;17.142;2023-02-28T14:44:36;7.40;50.90
12309;DHT22;6217;48.150;17.142;2023-02-28T14:48:45;7.40;50.80
12309;DHT22;6217;48.150;17.142;2023-02-28T14:52:53;7.30;50.60
12309;DHT22;6217;48.150;17.142;2023-02-28T14:57:00;7.30;50.70
12309;DHT22;6217;48.150;17.142;2023-02-28T15:01:10;7.30;50.60
12309;DHT22;6217;48.150;17.142;2023-02-28T15:05:24;7.30;50.70
12309;DHT22;6217;48.150;17.142;2023-02-28T15:09:35;7.20;50.50
12309;DHT22;6217;48.150;17.142;2023-02-28T15:13:47;7.20;50.60
12309;DHT22;6217;48.150;17.142;2023-02-28T15:17:56;7.20;50.60
12309;DHT22;6217;48.150;17.142;2023-02-28T15:22:07;7.00;50.50
12309;DHT22;6217;48.150;17.142;2023-02-28T15:26:20;7.00;50.80
12309;DHT22;6217;48.150;17.142;2023-02-28T15:30:29;6.90;50.90
12309;DHT22;6217;48.150;17.142;2023-02-28T15:34:41;6.90;51.00
12309;DHT22;6217;48.150;17.142;2023-02-28T15:38:51;6.70;51.00
12309;DHT22;6217;48.150;17.142;2023-02-28T15:47:27;6.60;51.30
12309;DHT22;6217;48.150;17.142;2023-02-28T15:51:36;6.50;51.40
12309;DHT22;6217;48.150;17.142;2023-02-28T15:55:43;6.40;51.50
12309;DHT22;6217;48.150;17.142;2023-02-28T16:00:02;6.40;51.60
12309;DHT22;6217;48.150;17.142;2023-02-28T16:04:19;6.40;51.70
12309;DHT22;6217;48.150;17.142;2023-02-28T16:08:25;6.20;51.80
12309;DHT22;6217;48.150;17.142;2023-02-28T16:12:33;6.20;52.00
12309;DHT22;6217;48.150;17.142;2023-02-28T16:16:44;6.10;52.10
12309;DHT22;6217;48.150;17.142;2023-02-28T16:20:51;6.10;52.10
12309;DHT22;6217;48.150;17.142;2023-02-28T16:24:57;6.00;52.10
12309;DHT22;6217;48.150;17.142;2023-02-28T16:29:03;6.00;52.20
12309;DHT22;6217;48.150;17.142;2023-02-28T16:33:10;6.00;52.30
12309;DHT22;6217;48.150;17.142;2023-02-28T16:37:17;5.90;52.20
12309;DHT22;6217;48.150;17.142;2023-02-28T16:41:26;5.90;52.40
12309;DHT22;6217;48.150;17.142;2023-02-28T16:45:33;5.80;52.30
12309;DHT22;6217;48.150;17.142;2023-02-28T16:49:39;5.80;52.50
12309;DHT22;6217;48.150;17.142;2023-02-28T16:53:47;5.80;52.50
12309;DHT22;6217;48.150;17.142;2023-02-28T16:57:57;5.70;52.60
12309;DHT22;6217;48.150;17.142;2023-02-28T17:02:14;5.70;52.60
12309;DHT22;6217;48.150;17.142;2023-02-28T17:06:24;5.70;52.60
12309;DHT22;6217;48.150;17.142;2023-02-28T17:10:33;5.70;52.60
12309;DHT22;6217;48.150;17.142;2023-02-28T17:14:39;5.70;52.60
12309;DHT22;6217;48.150;17.142;2023-02-28T17:18:45;5.60;52.70
12309;DHT22;6217;48.150;17.142;2023-02-28T17:22:51;5.60;52.80
12309;DHT22;6217;48.150;17.142;2023-02-28T17:26:58;5.60;53.00
12309;DHT22;6217;48.150;17.142;2023-02-28T17:31:04;5.50;53.10
12309;DHT22;6217;48.150;17.142;2023-02-28T17:35:10;5.50;53.30
12309;DHT22;6217;48.150;17.142;2023-02-28T17:39:18;5.50;53.30
12309;DHT22;6217;48.150;17.142;2023-02-28T17:43:31;5.50;53.40
12309;DHT22;6217;48.150;17.142;2023-02-28T17:47:37;5.50;53.50
12309;DHT22;6217;48.150;17.142;2023-02-28T17:51:44;5.40;53.70
12309;DHT22;6217;48.150;17.142;2023-02-28T17:55:50;5.40;53.90
12309;DHT22;6217;48.150;17.142;2023-02-28T17:59:56;5.50;53.90
12309;DHT22;6217;48.150;17.142;2023-02-28T18:04:02;5.40;53.90
12309;DHT22;6217;48.150;17.142;2023-02-28T18:08:16;5.50;54.00
12309;DHT22;6217;48.150;17.142;2023-02-28T18:13:00;5.60;54.00
12309;DHT22;6217;48.150;17.142;2023-02-28T18:17:42;5.50;54.00
12309;DHT22;6217;48.150;17.142;2023-02-28T18:21:51;5.40;54.40
12309;DHT22;6217;48.150;17.142;2023-02-28T18:25:57;5.30;54.70
12309;DHT22;6217;48.150;17.142;2023-02-28T18:30:03;5.30;54.90
12309;DHT22;6217;48.150;17.142;2023-02-28T18:34:10;5.30;54.90
12309;DHT22;6217;48.150;17.142;2023-02-28T18:38:17;5.20;55.20
12309;DHT22;6217;48.150;17.142;2023-02-28T18:42:28;5.10;55.30
12309;DHT22;6217;48.150;17.142;2023-02-28T18:46:35;5.00;55.40
12309;DHT22;6217;48.150;17.142;2023-02-28T18:50:41;5.10;55.50
12309;DHT22;6217;48.150;17.142;2023-02-28T18:54:46;5.10;55.30
12309;DHT22;6217;48.150;17.142;2023-02-28T18:58:52;5.00;55.60
12309;DHT22;6217;48.150;17.142;2023-02-28T19:02:58;5.00;55.70
12309;DHT22;6217;48.150;17.142;2023-02-28T19:07:04;5.00;55.80
12309;DHT22;6217;48.150;17.142;2023-02-28T19:11:17;5.00;55.80
12309;DHT22;6217;48.150;17.142;2023-02-28T19:15:23;4.90;55.80
12309;DHT22;6217;48.150;17.142;2023-02-28T19:19:29;4.80;56.00
12309;DHT22;6217;48.150;17.142;2023-02-28T19:23:36;4.70;56.20
12309;DHT22;6217;48.150;17.142;2023-02-28T19:27:43;4.70;56.90
12309;DHT22;6217;48.150;17.142;2023-02-28T19:31:49;4.70;56.50
12309;DHT22;6217;48.150;17.142;2023-02-28T19:35:57;4.60;56.60
12309;DHT22;6217;48.150;17.142;2023-02-28T19:40:06;4.50;57.00
12309;DHT22;6217;48.150;17.142;2023-02-28T19:44:13;4.40;57.10
12309;DHT22;6217;48.150;17.142;2023-02-28T19:48:19;4.40;57.40
12309;DHT22;6217;48.150;17.142;2023-02-28T19:52:29;4.40;57.40
12309;DHT22;6217;48.150;17.142;2023-02-28T19:56:35;4.50;57.40
12309;DHT22;6217;48.150;17.142;2023-02-28T20:00:41;4.40;57.40
12309;DHT22;6217;48.150;17.142;2023-02-28T20:04:48;4.30;57.60
12309;DHT22;6217;48.150;17.142;2023-02-28T20:08:55;4.20;57.90
12309;DHT22;6217;48.150;17.142;2023-02-28T20:13:00;4.20;58.20
12309;DHT22;6217;48.150;17.142;2023-02-28T20:17:06;4.20;58.20
12309;DHT22;6217;48.150;17.142;2023-02-28T20:21:13;4.20;58.20
12309;DHT22;6217;48.150;17.142;2023-02-28T20:25:19;4.10;58.30
12309;DHT22;6217;48.150;17.142;2023-02-28T20:29:25;4.10;58.50
12309;DHT22;6217;48.150;17.142;2023-02-28T20:33:31;4.10;58.70
12309;DHT22;6217;48.150;17.142;2023-02-28T20:37:37;4.10;58.70
12309;DHT22;6217;48.150;17.142;2023-02-28T20:41:43;3.90;58.90
12309;DHT22;6217;48.150;17.142;2023-02-28T20:45:53;3.90;59.20
12309;DHT22;6217;48.150;17.142;2023-02-28T20:50:02;3.80;59.60
12309;DHT22;6217;48.150;17.142;2023-02-28T20:54:09;3.70;59.70
12309;DHT22;6217;48.150;17.142;2023-02-28T20:58:18;3.70;59.80
12309;DHT22;6217;48.150;17.142;2023-02-28T21:02:24;3.80;59.70
12309;DHT22;6217;48.150;17.142;2023-02-28T21:06:33;3.70;59.80
12309;DHT22;6217;48.150;17.142;2023-02-28T21:10:41;3.70;59.90
12309;DHT22;6217;48.150;17.142;2023-02-28T21:14:47;3.70;59.80
12309;DHT22;6217;48.150;17.142;2023-02-28T21:18:53;3.60;60.00
12309;DHT22;6217;48.150;17.142;2023-02-28T21:22:59;3.60;60.30
12309;DHT22;6217;48.150;17.142;2023-02-28T21:27:05;3.50;60.50
12309;DHT22;6217;48.150;17.142;2023-02-28T21:31:13;3.50;60.70
12309;DHT22;6217;48.150;17.142;2023-02-28T21:35:20;3.50;60.70
12309;DHT22;6217;48.150;17.142;2023-02-28T21:39:27;3.50;60.90
12309;DHT22;6217;48.150;17.142;2023-02-28T21:43:34;3.50;61.00
12309;DHT22;6217;48.150;17.142;2023-02-28T21:47:40;3.50;61.00
12309;DHT22;6217;48.150;17.142;2023-02-28T21:51:46;3.40;61.20
12309;DHT22;6217;48.150;17.142;2023-02-28T21:55:52;3.40;61.30
12309;DHT22;6217;48.150;17.142;2023-02-28T21:59:58;3.30;61.40
12309;DHT22;6217;48.150;17.142;2023-02-28T22:04:07;3.10;61.70
12309;DHT22;6217;48.150;17.142;2023-02-28T22:08:14;3.00;62.20
12309;DHT22;6217;48.150;17.142;2023-02-28T22:12:20;3.10;62.40
12309;DHT22;6217;48.150;17.142;2023-02-28T22:16:29;3.10;62.20
12309;DHT22;6217;48.150;17.142;2023-02-28T22:20:36;3.00;62.40
12309;DHT22;6217;48.150;17.142;2023-02-28T22:24:41;3.10;62.50
12309;DHT22;6217;48.150;17.142;2023-02-28T22:28:49;3.00;62.50
12309;DHT22;6217;48.150;17.142;2023-02-28T22:32:55;3.00;62.70
12309;DHT22;6217;48.150;17.142;2023-02-28T22:37:01;3.00;62.70
12309;DHT22;6217;48.150;17.142;2023-02-28T22:41:07;3.00;62.70
12309;DHT22;6217;48.150;17.142;2023-02-28T22:45:13;2.90;62.90
12309;DHT22;6217;48.150;17.142;2023-02-28T22:49:19;2.80;63.20
12309;DHT22;6217;48.150;17.142;2023-02-28T22:53:25;2.90;63.30
12309;DHT22;6217;48.150;17.142;2023-02-28T22:57:31;2.80;63.30
12309;DHT22;6217;48.150;17.142;2023-02-28T23:01:37;2.60;63.70
12309;DHT22;6217;48.150;17.142;2023-02-28T23:05:45;2.60;64.00
12309;DHT22;6217;48.150;17.142;2023-02-28T23:09:51;2.70;64.20
12309;DHT22;6217;48.150;17.142;2023-02-28T23:13:59;2.80;64.10
12309;DHT22;6217;48.150;17.142;2023-02-28T23:18:05;2.70;64.00
12309;DHT22;6217;48.150;17.142;2023-02-28T23:22:11;2.80;64.00
12309;DHT22;6217;48.150;17.142;2023-02-28T23:26:17;2.80;63.80
12309;DHT22;6217;48.150;17.142;2023-02-28T23:30:23;2.80;63.90
12309;DHT22;6217;48.150;17.142;2023-02-28T23:34:29;2.80;64.00
12309;DHT22;6217;48.150;17.142;2023-02-28T23:38:37;2.80;63.90
12309;DHT22;6217;48.150;17.142;2023-02-28T23:42:46;2.80;64.00
12309;DHT22;6217;48.150;17.142;2023-02-28T23:46:52;2.60;64.40
12309;DHT22;6217;48.150;17.142;2023-02-28T23:51:04;2.50;64.80
12309;DHT22;6217;48.150;17.142;2023-02-28T23:55:14;2.40;65.20
12309;DHT22;6217;48.150;17.142;2023-02-28T23:59:20;2.40;65.30
